Time;durP1;ratioP1;P1;durP2;ratioP2;P2;SDS_P1;SDS_P2;PMS_P1;PMS_P2;Temp;Humidity;BMP_temperature;BMP_pressure;BME280_temperature;BME280_humidity;BME280_pressure;Samples;Min_cycle;Max_cycle;Signal;HPM_P1;HPM_P2
2021/06/03 00:02:15;;;;;;;7.17;4.97;;;;;;;;;;5134295;28;20518;-70
2021/06/03 00:04:42;;;;;;;8.23;5.97;;;;;;;;;;5133985;28;20448;-72
2021/06/03 00:07:09;;;;;;;6.70;6.00;;;;;;;;;;5133958;28;20486;-71
2021/06/03 00:09:35;;;;;;;6.67;6.07;;;;;;;;;;5135099;28;20448;-71
2021/06/03 00:12:02;;;;;;;6.30;5.70;;;;;;;;;;5134203;28;20440;-71
2021/06/03 00:14:29;;;;;;;4.73;4.20;;;;;;;;;;5134206;28;20478;-71
2021/06/03 00:16:57;;;;;;;5.30;4.77;;;;;;;;;;5135004;28;20817;-71
2021/06/03 00:19:24;;;;;;;7.20;6.50;;;;;;;;;;5134568;28;20446;-72
2021/06/03 00:21:51;;;;;;;6.23;5.63;;;;;;;;;;5134422;28;20762;-71
2021/06/03 00:24:18;;;;;;;7.07;6.47;;;;;;;;;;5133790;28;21060;-71
2021/06/03 00:26:45;;;;;;;8.60;6.50;;;;;;;;;;5133754;27;20645;-71
2021/06/03 00:29:13;;;;;;;8.37;6.67;;;;;;;;;;5134080;28;20500;-71
2021/06/03 00:31:40;;;;;;;5.87;5.37;;;;;;;;;;5133726;28;20469;-71
2021/06/03 00:34:08;;;;;;;5.03;4.03;;;;;;;;;;5133997;28;20438;-72
2021/06/03 00:36:35;;;;;;;4.67;4.27;;;;;;;;;;5135839;27;20598;-71
2021/06/03 00:39:02;;;;;;;4.07;3.77;;;;;;;;;;5137427;27;20520;-72
2021/06/03 00:41:28;;;;;;;4.57;4.20;;;;;;;;;;5137688;27;20441;-71
2021/06/03 00:43:55;;;;;;;7.03;6.27;;;;;;;;;;5137310;27;20505;-72
2021/06/03 00:46:22;;;;;;;6.13;5.37;;;;;;;;;;5137120;27;20469;-72
2021/06/03 00:48:49;;;;;;;4.63;4.23;;;;;;;;;;5137526;27;20778;-72
2021/06/03 00:51:17;;;;;;;5.10;4.60;;;;;;;;;;5137967;27;20441;-72
2021/06/03 00:53:43;;;;;;;4.77;4.33;;;;;;;;;;5137108;27;20434;-71
2021/06/03 00:56:10;;;;;;;3.97;3.63;;;;;;;;;;5137433;27;20436;-71
2021/06/03 00:58:37;;;;;;;5.63;4.43;;;;;;;;;;5137051;27;20547;-71
2021/06/03 01:01:04;;;;;;;5.30;4.40;;;;;;;;;;5137746;27;20444;-71
2021/06/03 01:03:33;;;;;;;4.17;3.77;;;;;;;;;;5137204;27;20582;-71
2021/06/03 01:06:01;;;;;;;8.30;4.30;;;;;;;;;;5137120;27;20494;-71
2021/06/03 01:08:31;;;;;;;5.00;4.60;;;;;;;;;;5137476;27;20485;-71
2021/06/03 01:10:59;;;;;;;4.80;4.40;;;;;;;;;;5137663;27;20577;-71
2021/06/03 01:13:33;;;;;;;8.07;7.27;;;;;;;;;;5137084;27;20425;-71
2021/06/03 01:16:00;;;;;;;5.90;5.40;;;;;;;;;;5136775;27;20427;-71
2021/06/03 01:18:27;;;;;;;6.60;5.90;;;;;;;;;;5136690;27;20450;-71
2021/06/03 01:20:55;;;;;;;6.40;5.80;;;;;;;;;;5136571;27;20444;-71
2021/06/03 01:23:24;;;;;;;4.87;4.47;;;;;;;;;;5137498;27;20461;-71
2021/06/03 01:25:53;;;;;;;4.60;4.20;;;;;;;;;;5136642;27;20439;-71
2021/06/03 01:28:20;;;;;;;6.37;5.87;;;;;;;;;;5137071;27;20459;-71
2021/06/03 01:30:48;;;;;;;5.13;4.73;;;;;;;;;;5136718;27;20470;-72
2021/06/03 01:33:16;;;;;;;6.37;4.50;;;;;;;;;;5136678;27;20448;-71
2021/06/03 01:35:44;;;;;;;6.50;4.70;;;;;;;;;;5136372;27;20437;-71
2021/06/03 01:38:12;;;;;;;5.07;4.63;;;;;;;;;;5136691;27;20627;-71
2021/06/03 01:40:40;;;;;;;5.63;4.40;;;;;;;;;;5136249;27;20525;-71
2021/06/03 01:43:09;;;;;;;5.17;4.77;;;;;;;;;;5136141;27;20442;-71
2021/06/03 01:45:36;;;;;;;6.13;4.20;;;;;;;;;;5136404;27;20444;-71
2021/06/03 01:48:04;;;;;;;4.00;3.40;;;;;;;;;;5135944;27;20474;-71
2021/06/03 01:50:31;;;;;;;5.70;3.43;;;;;;;;;;5136092;27;20528;-71
2021/06/03 01:52:57;;;;;;;4.50;4.10;;;;;;;;;;5136328;27;20436;-71
2021/06/03 01:55:24;;;;;;;4.97;4.53;;;;;;;;;;5135929;27;20521;-71
2021/06/03 01:57:51;;;;;;;5.40;4.17;;;;;;;;;;5136265;27;20489;-71
2021/06/03 02:00:20;;;;;;;4.07;3.77;;;;;;;;;;5135858;27;20935;-70
2021/06/03 02:02:47;;;;;;;4.73;4.23;;;;;;;;;;5136090;27;20512;-70
2021/06/03 02:05:14;;;;;;;4.37;4.07;;;;;;;;;;5135761;27;20441;-70
2021/06/03 02:07:41;;;;;;;4.43;4.10;;;;;;;;;;5135627;27;20491;-70
2021/06/03 02:10:09;;;;;;;4.00;3.70;;;;;;;;;;5136003;27;20769;-70
2021/06/03 02:12:37;;;;;;;4.17;3.87;;;;;;;;;;5135570;27;20488;-71
2021/06/03 02:15:05;;;;;;;4.63;4.23;;;;;;;;;;5135943;27;20438;-70
2021/06/03 02:17:35;;;;;;;4.07;3.77;;;;;;;;;;5135811;27;20579;-70
2021/06/03 02:20:05;;;;;;;4.47;4.07;;;;;;;;;;5136045;27;20434;-71
2021/06/03 02:22:32;;;;;;;4.23;3.53;;;;;;;;;;5136261;27;20835;-70
2021/06/03 02:24:59;;;;;;;4.60;4.20;;;;;;;;;;5135328;27;20442;-71
2021/06/03 02:27:26;;;;;;;4.43;4.07;;;;;;;;;;5136568;27;20481;-71
2021/06/03 02:29:53;;;;;;;5.37;4.87;;;;;;;;;;5135598;27;20820;-71
2021/06/03 02:32:21;;;;;;;4.57;4.27;;;;;;;;;;5135689;27;20438;-71
2021/06/03 02:34:52;;;;;;;5.10;4.70;;;;;;;;;;5135707;27;20502;-71
2021/06/03 02:37:19;;;;;;;4.67;4.23;;;;;;;;;;5135474;27;20438;-71
2021/06/03 02:39:48;;;;;;;6.77;5.17;;;;;;;;;;5135738;27;20452;-70
2021/06/03 02:42:15;;;;;;;5.90;5.30;;;;;;;;;;5135377;27;20488;-71
2021/06/03 02:44:43;;;;;;;4.97;4.40;;;;;;;;;;5135194;27;20486;-70
2021/06/03 02:47:10;;;;;;;4.60;4.23;;;;;;;;;;5135243;27;20469;-73
2021/06/03 02:49:37;;;;;;;4.80;4.50;;;;;;;;;;5135350;27;20791;-71
2021/06/03 02:52:06;;;;;;;5.10;4.70;;;;;;;;;;5134759;27;20453;-71
2021/06/03 02:54:33;;;;;;;6.37;4.80;;;;;;;;;;5135079;27;20510;-71
2021/06/03 02:57:00;;;;;;;5.77;4.63;;;;;;;;;;5135438;27;20442;-71
2021/06/03 02:59:27;;;;;;;5.20;4.80;;;;;;;;;;5134232;27;20444;-71
2021/06/03 03:01:54;;;;;;;9.33;5.37;;;;;;;;;;5135010;27;20441;-71
2021/06/03 03:04:20;;;;;;;5.80;5.30;;;;;;;;;;5134996;27;20447;-71
2021/06/03 03:06:47;;;;;;;9.00;4.80;;;;;;;;;;5135307;27;20538;-71
2021/06/03 03:09:15;;;;;;;7.80;5.33;;;;;;;;;;5134579;27;20998;-71
2021/06/03 03:11:42;;;;;;;5.10;4.70;;;;;;;;;;5134918;27;20449;-71
2021/06/03 03:14:09;;;;;;;5.47;5.03;;;;;;;;;;5134511;27;20541;-71
2021/06/03 03:16:36;;;;;;;6.20;5.70;;;;;;;;;;5135674;27;20429;-70
2021/06/03 03:19:02;;;;;;;5.20;4.80;;;;;;;;;;5134508;27;20490;-70
2021/06/03 03:21:29;;;;;;;9.17;5.53;;;;;;;;;;5134440;27;20438;-71
2021/06/03 03:23:56;;;;;;;6.10;4.57;;;;;;;;;;5134888;27;20430;-71
2021/06/03 03:26:24;;;;;;;7.07;5.40;;;;;;;;;;5134113;27;21007;-71
2021/06/03 03:28:50;;;;;;;8.80;5.00;;;;;;;;;;5135113;27;20448;-71
2021/06/03 03:31:17;;;;;;;6.10;5.20;;;;;;;;;;5134621;27;20464;-71
2021/06/03 03:33:44;;;;;;;6.70;5.00;;;;;;;;;;5134600;28;20450;-70
2021/06/03 03:36:10;;;;;;;7.47;4.77;;;;;;;;;;5134629;28;20434;-71
2021/06/03 03:38:37;;;;;;;7.23;5.27;;;;;;;;;;5134213;28;20481;-71
2021/06/03 03:41:04;;;;;;;6.60;5.70;;;;;;;;;;5134808;28;20444;-72
2021/06/03 03:43:32;;;;;;;7.83;5.27;;;;;;;;;;5134965;28;20429;-71
2021/06/03 03:45:59;;;;;;;5.70;5.10;;;;;;;;;;5134517;28;20517;-71
2021/06/03 03:48:25;;;;;;;7.33;5.20;;;;;;;;;;5134404;28;20475;-71
2021/06/03 03:50:52;;;;;;;5.87;5.13;;;;;;;;;;5134143;28;20444;-71
2021/06/03 03:53:19;;;;;;;5.37;4.93;;;;;;;;;;5134354;28;20438;-73
2021/06/03 03:55:45;;;;;;;6.07;5.57;;;;;;;;;;5134341;28;20442;-71
2021/06/03 03:58:12;;;;;;;4.70;4.40;;;;;;;;;;5134023;28;20442;-70
2021/06/03 04:00:40;;;;;;;7.30;4.20;;;;;;;;;;5134322;28;20442;-72
2021/06/03 04:03:09;;;;;;;8.43;4.20;;;;;;;;;;5135040;28;20442;-71
2021/06/03 04:05:36;;;;;;;5.40;5.03;;;;;;;;;;5131122;28;20477;-71
2021/06/03 04:08:03;;;;;;;5.70;5.20;;;;;;;;;;5124108;28;20477;-71
2021/06/03 04:10:30;;;;;;;6.00;4.90;;;;;;;;;;5134136;27;20966;-71
2021/06/03 04:12:57;;;;;;;5.30;4.90;;;;;;;;;;5138068;27;20448;-71
2021/06/03 04:15:23;;;;;;;4.77;4.27;;;;;;;;;;5138549;27;20437;-71
2021/06/03 04:17:52;;;;;;;7.87;4.77;;;;;;;;;;5138113;27;20834;-71
2021/06/03 04:20:20;;;;;;;5.53;4.80;;;;;;;;;;5137631;27;20441;-71
2021/06/03 04:22:47;;;;;;;6.63;5.57;;;;;;;;;;5137953;27;20434;-71
2021/06/03 04:25:14;;;;;;;6.10;5.50;;;;;;;;;;5137933;27;20438;-71
2021/06/03 04:27:41;;;;;;;5.27;4.77;;;;;;;;;;5121557;27;20490;-71
2021/06/03 04:30:09;;;;;;;6.90;4.60;;;;;;;;;;5116877;28;20500;-72
2021/06/03 04:32:35;;;;;;;5.10;4.60;;;;;;;;;;5117639;28;20434;-71
2021/06/03 04:35:04;;;;;;;5.20;4.80;;;;;;;;;;5117057;28;20444;-71
2021/06/03 04:37:31;;;;;;;5.57;4.17;;;;;;;;;;5097127;28;20443;-72
2021/06/03 04:39:57;;;;;;;6.07;4.43;;;;;;;;;;5097150;28;20519;-72
2021/06/03 04:42:24;;;;;;;5.63;4.47;;;;;;;;;;5097075;28;20485;-72
2021/06/03 04:44:51;;;;;;;6.80;5.97;;;;;;;;;;5096368;28;20435;-71
2021/06/03 04:47:19;;;;;;;4.87;4.37;;;;;;;;;;5096534;28;20497;-71
2021/06/03 04:49:45;;;;;;;5.40;4.30;;;;;;;;;;5096505;28;20441;-72
2021/06/03 04:52:26;;;;;;;4.83;4.40;;;;;;;;;;5096100;28;20482;-72
2021/06/03 04:54:53;;;;;;;4.93;4.37;;;;;;;;;;5096094;28;20416;-71
2021/06/03 04:57:20;;;;;;;5.57;4.43;;;;;;;;;;5095978;28;20951;-71
2021/06/03 04:59:47;;;;;;;5.20;4.80;;;;;;;;;;5096246;28;20448;-71
2021/06/03 05:02:13;;;;;;;6.63;4.53;;;;;;;;;;5096345;28;20686;-71
2021/06/03 05:04:40;;;;;;;5.30;4.83;;;;;;;;;;5095893;28;20436;-71
2021/06/03 05:07:13;;;;;;;5.17;4.67;;;;;;;;;;5096202;28;20489;-71
2021/06/03 05:09:40;;;;;;;5.33;4.87;;;;;;;;;;5096333;28;20509;-72
2021/06/03 05:12:07;;;;;;;5.30;4.90;;;;;;;;;;5096494;28;20830;-72
2021/06/03 05:14:34;;;;;;;7.00;5.17;;;;;;;;;;5096015;28;20443;-72
2021/06/03 05:17:01;;;;;;;5.00;4.50;;;;;;;;;;5096267;28;20538;-72
2021/06/03 05:19:28;;;;;;;4.40;4.00;;;;;;;;;;5096028;28;20536;-72
2021/06/03 05:21:54;;;;;;;5.33;4.40;;;;;;;;;;5095285;28;20432;-72
2021/06/03 05:24:22;;;;;;;6.07;5.57;;;;;;;;;;5095769;28;20436;-72
2021/06/03 05:26:49;;;;;;;4.80;4.40;;;;;;;;;;5104765;28;20570;-71
2021/06/03 05:29:16;;;;;;;5.00;4.50;;;;;;;;;;5121127;27;20470;-71
2021/06/03 05:31:43;;;;;;;5.10;4.10;;;;;;;;;;5128953;27;20450;-71
2021/06/03 05:34:09;;;;;;;5.10;4.57;;;;;;;;;;5136240;27;20939;-71
2021/06/03 05:36:36;;;;;;;5.20;4.73;;;;;;;;;;5137017;27;20522;-71
2021/06/03 05:39:03;;;;;;;5.83;5.43;;;;;;;;;;5136614;27;20783;-70
2021/06/03 05:41:32;;;;;;;5.10;4.67;;;;;;;;;;5136233;27;20439;-71
2021/06/03 05:43:59;;;;;;;4.77;4.37;;;;;;;;;;5136665;27;20794;-71
2021/06/03 05:46:26;;;;;;;4.70;4.30;;;;;;;;;;5136287;27;20920;-70
2021/06/03 05:48:53;;;;;;;5.57;3.83;;;;;;;;;;5136333;27;20830;-71
2021/06/03 05:51:19;;;;;;;5.63;5.10;;;;;;;;;;5136381;27;20845;-71
2021/06/03 05:53:46;;;;;;;5.67;4.30;;;;;;;;;;5136665;27;20783;-70
2021/06/03 05:56:13;;;;;;;4.80;4.40;;;;;;;;;;5136342;27;20435;-71
2021/06/03 05:58:41;;;;;;;5.40;4.90;;;;;;;;;;5130695;27;20452;-70
2021/06/03 06:01:08;;;;;;;6.23;5.60;;;;;;;;;;5115655;28;20791;-71
2021/06/03 06:03:39;;;;;;;4.37;3.97;;;;;;;;;;5115636;28;20441;-71
2021/06/03 06:06:23;;;;;;;5.17;4.67;;;;;;;;;;5115538;28;20433;-71
2021/06/03 06:08:50;;;;;;;6.37;5.87;;;;;;;;;;5115469;28;20460;-71
2021/06/03 06:11:17;;;;;;;6.10;4.20;;;;;;;;;;5115029;28;20452;-71
2021/06/03 06:13:45;;;;;;;8.00;4.30;;;;;;;;;;5114968;28;20444;-71
2021/06/03 06:16:12;;;;;;;5.13;4.63;;;;;;;;;;5116113;28;20448;-71
2021/06/03 06:18:40;;;;;;;5.50;4.70;;;;;;;;;;5115629;28;20799;-71
2021/06/03 06:21:07;;;;;;;5.33;4.53;;;;;;;;;;5115661;28;20801;-71
2021/06/03 06:23:34;;;;;;;5.83;4.00;;;;;;;;;;5115250;28;20450;-71
2021/06/03 06:26:01;;;;;;;4.93;4.60;;;;;;;;;;5115061;28;20486;-71
2021/06/03 06:28:28;;;;;;;4.90;4.50;;;;;;;;;;5114605;28;21028;-70
2021/06/03 06:30:56;;;;;;;4.13;3.80;;;;;;;;;;5115026;28;20441;-71
2021/06/03 06:33:23;;;;;;;3.97;3.67;;;;;;;;;;5113906;28;20506;-72
2021/06/03 06:35:50;;;;;;;5.10;4.27;;;;;;;;;;5114599;28;20434;-72
2021/06/03 06:38:17;;;;;;;4.80;4.27;;;;;;;;;;5115221;28;20443;-71
2021/06/03 06:40:44;;;;;;;5.00;4.57;;;;;;;;;;5114884;28;20538;-73
2021/06/03 06:43:11;;;;;;;4.57;4.27;;;;;;;;;;5114466;28;20435;-73
2021/06/03 06:45:38;;;;;;;4.30;3.97;;;;;;;;;;5114752;28;20442;-71
2021/06/03 06:48:07;;;;;;;5.73;4.60;;;;;;;;;;5114898;28;20884;-72
2021/06/03 06:50:34;;;;;;;4.63;4.27;;;;;;;;;;5114579;28;20453;-72
2021/06/03 06:53:01;;;;;;;5.13;4.50;;;;;;;;;;5114670;28;20477;-72
2021/06/03 06:55:28;;;;;;;5.33;4.70;;;;;;;;;;5114174;28;20478;-72
2021/06/03 06:57:55;;;;;;;4.00;3.70;;;;;;;;;;5114469;28;20477;-72
2021/06/03 07:00:23;;;;;;;3.87;3.60;;;;;;;;;;5113999;28;20447;-72
2021/06/03 07:02:50;;;;;;;5.87;4.30;;;;;;;;;;5114442;28;20434;-72
2021/06/03 07:05:18;;;;;;;4.67;4.20;;;;;;;;;;5114083;28;20447;-73
2021/06/03 07:07:44;;;;;;;4.83;4.33;;;;;;;;;;5114239;28;20470;-72
2021/06/03 07:10:12;;;;;;;4.60;4.30;;;;;;;;;;5114282;28;20487;-72
2021/06/03 07:12:40;;;;;;;4.53;4.13;;;;;;;;;;5114253;28;20474;-73
2021/06/03 07:15:08;;;;;;;9.50;4.37;;;;;;;;;;5114221;28;20435;-73
2021/06/03 07:17:35;;;;;;;4.60;4.30;;;;;;;;;;5114136;28;20844;-72
2021/06/03 07:20:02;;;;;;;5.50;4.13;;;;;;;;;;5114137;28;20523;-72
2021/06/03 07:22:30;;;;;;;5.30;4.63;;;;;;;;;;5113851;28;20444;-72
2021/06/03 07:24:57;;;;;;;4.13;3.77;;;;;;;;;;5114108;28;20439;-72
2021/06/03 07:27:23;;;;;;;4.70;4.23;;;;;;;;;;5113696;28;20488;-72
2021/06/03 07:29:50;;;;;;;4.40;4.00;;;;;;;;;;5113749;28;20459;-72
2021/06/03 07:32:17;;;;;;;5.77;4.30;;;;;;;;;;5113676;28;20447;-72
2021/06/03 07:34:44;;;;;;;6.30;4.70;;;;;;;;;;5113671;28;20497;-72
2021/06/03 07:37:10;;;;;;;4.63;4.33;;;;;;;;;;5114003;28;20542;-72
2021/06/03 07:39:38;;;;;;;5.50;5.00;;;;;;;;;;5114147;28;20491;-74
2021/06/03 07:42:05;;;;;;;4.97;4.57;;;;;;;;;;5113595;28;20439;-73
2021/06/03 07:44:32;;;;;;;6.90;4.97;;;;;;;;;;5114268;28;20482;-73
2021/06/03 07:46:59;;;;;;;4.50;4.10;;;;;;;;;;5117863;28;21035;-71
2021/06/03 07:49:25;;;;;;;5.60;5.13;;;;;;;;;;5118045;28;20462;-70
2021/06/03 07:51:52;;;;;;;6.73;5.53;;;;;;;;;;5117661;28;20441;-73
2021/06/03 07:54:19;;;;;;;5.37;4.87;;;;;;;;;;5118065;28;20447;-71
2021/06/03 07:56:47;;;;;;;5.23;4.73;;;;;;;;;;5118022;28;20529;-71
2021/06/03 07:59:14;;;;;;;7.60;5.80;;;;;;;;;;5121795;27;20538;-70
2021/06/03 08:01:40;;;;;;;5.83;4.73;;;;;;;;;;5124127;27;20442;-71
2021/06/03 08:04:07;;;;;;;5.90;5.30;;;;;;;;;;5126586;27;20435;-71
2021/06/03 08:06:34;;;;;;;6.93;5.17;;;;;;;;;;5138278;27;20481;-71
2021/06/03 08:09:01;;;;;;;6.07;4.70;;;;;;;;;;5137895;27;20469;-71
2021/06/03 08:11:27;;;;;;;5.80;5.30;;;;;;;;;;5138248;27;20530;-71
2021/06/03 08:13:55;;;;;;;5.70;5.10;;;;;;;;;;5137813;27;20444;-70
2021/06/03 08:16:22;;;;;;;5.43;4.93;;;;;;;;;;5138530;27;20440;-70
2021/06/03 08:18:49;;;;;;;6.90;5.60;;;;;;;;;;5138056;27;20443;-71
2021/06/03 08:21:16;;;;;;;6.33;5.20;;;;;;;;;;5137766;27;20444;-70
2021/06/03 08:23:43;;;;;;;5.57;5.17;;;;;;;;;;5138100;27;20530;-71
2021/06/03 08:26:09;;;;;;;7.00;5.43;;;;;;;;;;5134021;27;20494;-70
2021/06/03 08:28:36;;;;;;;4.93;4.47;;;;;;;;;;5110479;28;20568;-71
2021/06/03 08:31:04;;;;;;;5.83;5.10;;;;;;;;;;5097157;28;20449;-71
2021/06/03 08:33:31;;;;;;;8.80;5.00;;;;;;;;;;5096734;28;20511;-71
2021/06/03 08:35:58;;;;;;;6.27;5.13;;;;;;;;;;5096474;28;20443;-71
2021/06/03 08:38:25;;;;;;;4.93;4.50;;;;;;;;;;5097104;28;20477;-69
2021/06/03 08:40:53;;;;;;;5.90;5.23;;;;;;;;;;5097202;28;20850;-70
2021/06/03 08:43:21;;;;;;;8.73;5.07;;;;;;;;;;5096631;28;20485;-70
2021/06/03 08:45:48;;;;;;;5.53;4.90;;;;;;;;;;5096697;28;20468;-71
2021/06/03 08:48:17;;;;;;;4.80;4.40;;;;;;;;;;5096496;28;20476;-70
2021/06/03 08:50:46;;;;;;;5.00;4.50;;;;;;;;;;5096922;28;20449;-72
2021/06/03 08:53:13;;;;;;;5.30;4.90;;;;;;;;;;5097153;28;20459;-71
2021/06/03 08:58:26;;;;;;;5.80;5.20;;;;;;;;;;5095644;28;20419;-68
2021/06/03 09:00:54;;;;;;;5.47;5.07;;;;;;;;;;5096243;28;20527;-71
2021/06/03 09:03:23;;;;;;;5.50;4.97;;;;;;;;;;5097013;28;20443;-72
2021/06/03 09:05:50;;;;;;;5.47;4.57;;;;;;;;;;5095926;28;20528;-71
2021/06/03 09:08:21;;;;;;;6.40;4.43;;;;;;;;;;5096209;28;20836;-71
2021/06/03 09:10:49;;;;;;;6.10;5.00;;;;;;;;;;5096608;28;20418;-71
2021/06/03 09:13:17;;;;;;;5.17;4.67;;;;;;;;;;5095953;28;20539;-71
2021/06/03 09:15:44;;;;;;;7.93;4.90;;;;;;;;;;5095711;28;20961;-71
2021/06/03 09:18:11;;;;;;;4.47;4.00;;;;;;;;;;5096355;28;20456;-71
2021/06/03 09:20:41;;;;;;;6.97;5.20;;;;;;;;;;5095869;28;20435;-70
2021/06/03 09:23:07;;;;;;;7.57;5.10;;;;;;;;;;5095875;28;20432;-71
2021/06/03 09:25:36;;;;;;;5.13;4.83;;;;;;;;;;5095948;28;20462;-70
2021/06/03 09:28:20;;;;;;;5.73;5.13;;;;;;;;;;5115612;28;20822;-71
2021/06/03 09:31:07;;;;;;;6.13;5.63;;;;;;;;;;5116842;28;20475;-70
2021/06/03 09:33:38;;;;;;;5.10;4.60;;;;;;;;;;5109790;28;20927;-71
2021/06/03 09:36:07;;;;;;;5.20;4.70;;;;;;;;;;5115983;28;20447;-71
2021/06/03 09:38:33;;;;;;;7.27;4.67;;;;;;;;;;5116288;28;20514;-70
2021/06/03 09:41:00;;;;;;;5.90;5.30;;;;;;;;;;5115976;28;20438;-70
2021/06/03 09:43:27;;;;;;;10.90;4.90;;;;;;;;;;5115920;28;20521;-70
2021/06/03 09:45:58;;;;;;;4.43;4.10;;;;;;;;;;5116575;28;20435;-71
2021/06/03 09:48:35;;;;;;;5.70;4.30;;;;;;;;;;5115783;28;20532;-71
2021/06/03 09:51:19;;;;;;;4.70;4.30;;;;;;;;;;5115685;28;20434;-71
2021/06/03 09:53:56;;;;;;;4.93;4.40;;;;;;;;;;5115722;28;20422;-71
2021/06/03 09:56:25;;;;;;;6.63;4.43;;;;;;;;;;5115277;28;20453;-71
2021/06/03 09:58:52;;;;;;;5.33;4.50;;;;;;;;;;5115740;28;20529;-71
2021/06/03 10:01:37;;;;;;;8.20;4.23;;;;;;;;;;5115152;28;20987;-71
2021/06/03 10:04:04;;;;;;;5.87;4.57;;;;;;;;;;5115483;28;20418;-77
2021/06/03 10:06:33;;;;;;;4.80;4.50;;;;;;;;;;5115518;28;20818;-71
2021/06/03 10:09:00;;;;;;;5.10;4.27;;;;;;;;;;5114386;28;20536;-71
2021/06/03 10:11:47;;;;;;;7.00;4.40;;;;;;;;;;5114964;28;20410;-71
2021/06/03 10:14:15;;;;;;;5.53;5.13;;;;;;;;;;5115000;28;20417;-71
2021/06/03 10:16:42;;;;;;;5.67;4.93;;;;;;;;;;5115205;28;20488;-70
2021/06/03 10:19:18;;;;;;;5.13;3.87;;;;;;;;;;5120378;27;20960;-71
2021/06/03 10:22:06;;;;;;;7.17;4.20;;;;;;;;;;5130924;27;20476;-71
2021/06/03 10:24:50;;;;;;;4.93;4.27;;;;;;;;;;5135586;27;20845;-70
2021/06/03 10:27:17;;;;;;;6.13;4.47;;;;;;;;;;5122543;27;20471;-71
2021/06/03 10:29:44;;;;;;;5.07;4.63;;;;;;;;;;5115017;28;20491;-70
2021/06/03 10:32:11;;;;;;;5.40;4.60;;;;;;;;;;5114500;28;20421;-70
2021/06/03 10:34:38;;;;;;;5.20;4.80;;;;;;;;;;5114816;28;20454;-70
2021/06/03 10:37:06;;;;;;;4.60;4.27;;;;;;;;;;5114757;28;20455;-70
2021/06/03 10:39:33;;;;;;;7.43;6.83;;;;;;;;;;5114329;28;20944;-70
2021/06/03 10:42:01;;;;;;;7.70;6.63;;;;;;;;;;5114361;28;20441;-70
2021/06/03 10:44:28;;;;;;;9.73;4.80;;;;;;;;;;5114626;28;20509;-70
2021/06/03 10:46:55;;;;;;;4.90;4.40;;;;;;;;;;5114243;28;20409;-70
2021/06/03 10:49:22;;;;;;;5.30;4.80;;;;;;;;;;5100132;28;20487;-70
2021/06/03 10:51:49;;;;;;;5.90;5.40;;;;;;;;;;5093666;28;20440;-70
2021/06/03 10:54:38;;;;;;;5.47;4.97;;;;;;;;;;5093972;28;20431;-70
2021/06/03 10:57:05;;;;;;;7.47;5.03;;;;;;;;;;5094940;28;20424;-70
2021/06/03 10:59:33;;;;;;;6.50;5.53;;;;;;;;;;5093920;28;20530;-70
2021/06/03 11:02:00;;;;;;;8.90;5.70;;;;;;;;;;5093693;28;20445;-71
2021/06/03 11:04:27;;;;;;;6.50;6.00;;;;;;;;;;5093602;28;20444;-71
2021/06/03 11:06:54;;;;;;;5.43;4.80;;;;;;;;;;5093700;28;20837;-71
2021/06/03 11:09:27;;;;;;;6.47;5.60;;;;;;;;;;5093820;28;20556;-71
2021/06/03 11:12:07;;;;;;;6.37;4.27;;;;;;;;;;5093594;28;20498;-71
2021/06/03 11:14:54;;;;;;;5.00;4.60;;;;;;;;;;5093450;28;20418;-72
2021/06/03 11:17:35;;;;;;;4.97;4.10;;;;;;;;;;5098766;28;20421;-71
2021/06/03 11:20:04;;;;;;;8.63;5.40;;;;;;;;;;5107438;28;20908;-71
2021/06/03 11:22:31;;;;;;;5.63;5.10;;;;;;;;;;5113841;28;20453;-71
2021/06/03 11:25:04;;;;;;;5.50;5.00;;;;;;;;;;5114406;28;20443;-71
2021/06/03 11:27:39;;;;;;;5.27;4.30;;;;;;;;;;5114984;28;20453;-71
2021/06/03 11:30:10;;;;;;;5.20;4.80;;;;;;;;;;5113972;28;20877;-71
2021/06/03 11:32:39;;;;;;;6.83;5.97;;;;;;;;;;5114009;28;20502;-71
2021/06/03 11:35:07;;;;;;;7.20;5.13;;;;;;;;;;5113742;28;20951;-71
2021/06/03 11:37:45;;;;;;;5.70;5.07;;;;;;;;;;5114544;28;20533;-71
2021/06/03 11:40:16;;;;;;;5.47;5.07;;;;;;;;;;5113920;28;20402;-71
2021/06/03 11:42:45;;;;;;;6.33;5.80;;;;;;;;;;5114375;28;20753;-71
2021/06/03 11:45:26;;;;;;;6.80;5.47;;;;;;;;;;5113387;28;20530;-71
2021/06/03 11:48:11;;;;;;;6.70;5.57;;;;;;;;;;5098464;28;20777;-71
2021/06/03 11:51:05;;;;;;;5.20;4.70;;;;;;;;;;5093125;28;20992;-71
2021/06/03 11:53:32;;;;;;;5.37;4.97;;;;;;;;;;5034742;28;20419;-71
2021/06/03 11:56:10;;;;;;;6.00;5.10;;;;;;;;;;5093284;28;20515;-70
2021/06/03 11:58:46;;;;;;;5.67;4.33;;;;;;;;;;5093298;28;20489;-70
2021/06/03 12:01:29;;;;;;;5.00;4.60;;;;;;;;;;5093138;28;20399;-71
2021/06/03 12:04:07;;;;;;;8.23;4.67;;;;;;;;;;5093103;28;20411;-71
2021/06/03 12:06:38;;;;;;;5.33;4.87;;;;;;;;;;5093817;28;20433;-71
2021/06/03 12:09:17;;;;;;;4.70;4.30;;;;;;;;;;5093491;28;20469;-71
2021/06/03 12:11:45;;;;;;;4.60;4.30;;;;;;;;;;5093528;28;20410;-72
2021/06/03 12:14:14;;;;;;;4.27;3.97;;;;;;;;;;5093246;28;20517;-71
2021/06/03 12:16:41;;;;;;;5.30;4.80;;;;;;;;;;5092691;28;20556;-71
2021/06/03 12:19:09;;;;;;;4.80;4.37;;;;;;;;;;5093236;28;20415;-70
2021/06/03 12:21:37;;;;;;;5.87;5.37;;;;;;;;;;5093006;28;20793;-72
2021/06/03 12:24:04;;;;;;;5.53;5.03;;;;;;;;;;5093389;28;20436;-72
2021/06/03 12:26:31;;;;;;;5.30;4.80;;;;;;;;;;5099807;28;20502;-70
2021/06/03 12:28:59;;;;;;;6.03;4.63;;;;;;;;;;5113513;28;20458;-71
2021/06/03 12:31:26;;;;;;;5.27;4.30;;;;;;;;;;5113117;28;20465;-71
2021/06/03 12:33:53;;;;;;;5.00;4.70;;;;;;;;;;5117206;28;20462;-71
2021/06/03 12:36:20;;;;;;;6.00;5.40;;;;;;;;;;5116637;28;20507;-71
2021/06/03 12:38:48;;;;;;;7.30;5.43;;;;;;;;;;5117013;28;20405;-71
2021/06/03 12:41:26;;;;;;;5.00;4.60;;;;;;;;;;5116991;28;20439;-72
2021/06/03 12:43:53;;;;;;;5.07;4.67;;;;;;;;;;5116798;28;20420;-70
2021/06/03 12:46:29;;;;;;;4.73;4.33;;;;;;;;;;5116549;28;20446;-71
2021/06/03 12:49:00;;;;;;;5.23;4.80;;;;;;;;;;5117235;28;20605;-71
2021/06/03 12:51:27;;;;;;;5.37;4.93;;;;;;;;;;5117502;28;20427;-71
2021/06/03 12:53:53;;;;;;;8.30;5.33;;;;;;;;;;5116618;28;20523;-71
2021/06/03 12:56:23;;;;;;;5.50;5.00;;;;;;;;;;5116246;28;21014;-71
2021/06/03 12:58:50;;;;;;;7.83;5.20;;;;;;;;;;5116771;28;20431;-71
2021/06/03 13:01:17;;;;;;;5.80;5.10;;;;;;;;;;5116694;28;20412;-71
2021/06/03 13:03:51;;;;;;;4.80;4.40;;;;;;;;;;5116465;28;20409;-71
2021/06/03 13:06:18;;;;;;;5.80;4.07;;;;;;;;;;5116482;28;20918;-71
2021/06/03 13:08:45;;;;;;;4.57;3.60;;;;;;;;;;5115887;28;20991;-71
2021/06/03 13:11:23;;;;;;;4.30;3.90;;;;;;;;;;5115798;28;20447;-71
2021/06/03 13:13:50;;;;;;;4.93;4.50;;;;;;;;;;5116248;28;20517;-72
2021/06/03 13:16:21;;;;;;;5.90;4.00;;;;;;;;;;5115451;28;20440;-69
2021/06/03 13:18:50;;;;;;;3.33;2.93;;;;;;;;;;5115931;28;20518;-72
2021/06/03 13:21:16;;;;;;;3.47;3.17;;;;;;;;;;5115810;28;20522;-71
2021/06/03 13:23:49;;;;;;;4.13;3.73;;;;;;;;;;5115756;28;20532;-71
2021/06/03 13:26:20;;;;;;;4.83;4.30;;;;;;;;;;5115682;28;20505;-70
2021/06/03 13:28:46;;;;;;;4.83;4.43;;;;;;;;;;5120739;27;20562;-71
2021/06/03 13:31:18;;;;;;;6.90;4.33;;;;;;;;;;5127543;27;20443;-70
2021/06/03 13:33:45;;;;;;;4.87;4.37;;;;;;;;;;5136156;27;20921;-71
2021/06/03 13:36:14;;;;;;;5.67;3.80;;;;;;;;;;5136100;27;20524;-70
2021/06/03 13:38:45;;;;;;;4.33;3.70;;;;;;;;;;5136142;27;20444;-70
2021/06/03 13:41:13;;;;;;;3.83;3.33;;;;;;;;;;5135659;27;20932;-70
2021/06/03 13:43:40;;;;;;;4.97;3.70;;;;;;;;;;5135597;27;20499;-70
2021/06/03 13:46:08;;;;;;;4.70;4.30;;;;;;;;;;5135693;27;20532;-70
2021/06/03 13:48:38;;;;;;;3.77;3.47;;;;;;;;;;5136178;27;20556;-70
2021/06/03 13:51:05;;;;;;;4.30;3.97;;;;;;;;;;5136417;27;20482;-71
2021/06/03 13:53:38;;;;;;;4.13;3.80;;;;;;;;;;5135350;27;20439;-71
2021/06/03 13:56:08;;;;;;;4.70;4.07;;;;;;;;;;5136228;27;20517;-72
2021/06/03 13:58:37;;;;;;;4.20;3.90;;;;;;;;;;5136005;27;20585;-70
2021/06/03 14:01:22;;;;;;;4.80;4.50;;;;;;;;;;5135554;27;20969;-70
2021/06/03 14:03:51;;;;;;;4.33;4.03;;;;;;;;;;5135686;27;20427;-71
2021/06/03 14:06:19;;;;;;;4.43;4.03;;;;;;;;;;5135847;27;20438;-71
2021/06/03 14:08:48;;;;;;;3.50;3.30;;;;;;;;;;5135484;27;20992;-71
2021/06/03 14:11:29;;;;;;;3.60;3.40;;;;;;;;;;5135709;27;20446;-71
2021/06/03 14:13:58;;;;;;;4.80;3.90;;;;;;;;;;5135651;27;20420;-71
2021/06/03 14:16:46;;;;;;;3.70;3.40;;;;;;;;;;5135393;27;20445;-72
2021/06/03 14:19:15;;;;;;;3.90;3.50;;;;;;;;;;5128088;27;20885;-71
2021/06/03 14:21:53;;;;;;;3.67;3.30;;;;;;;;;;5135699;27;20462;-71
2021/06/03 14:24:23;;;;;;;3.50;3.20;;;;;;;;;;5135823;27;20444;-70
2021/06/03 14:26:49;;;;;;;3.90;3.50;;;;;;;;;;5135461;27;20466;-71
2021/06/03 14:29:16;;;;;;;3.80;3.10;;;;;;;;;;5135159;27;20510;-70
2021/06/03 14:31:44;;;;;;;3.50;3.20;;;;;;;;;;5135797;27;20437;-70
2021/06/03 14:34:31;;;;;;;3.37;3.07;;;;;;;;;;5135151;27;20474;-70
2021/06/03 14:36:59;;;;;;;4.00;3.07;;;;;;;;;;5134792;27;20478;-70
2021/06/03 14:39:43;;;;;;;4.87;2.67;;;;;;;;;;5134579;27;20524;-71
2021/06/03 14:42:22;;;;;;;3.30;2.97;;;;;;;;;;5135025;27;20435;-71
2021/06/03 14:44:49;;;;;;;3.87;3.57;;;;;;;;;;5135067;27;20429;-71
2021/06/03 14:47:16;;;;;;;2.87;2.40;;;;;;;;;;5134856;27;20435;-71
2021/06/03 14:49:42;;;;;;;3.20;2.80;;;;;;;;;;5134393;27;20564;-72
2021/06/03 14:52:09;;;;;;;3.90;2.67;;;;;;;;;;5134465;27;20531;-72
2021/06/03 14:54:36;;;;;;;2.80;2.60;;;;;;;;;;5134155;27;20441;-72
2021/06/03 14:57:04;;;;;;;3.00;2.80;;;;;;;;;;5134371;27;20447;-72